createdAt,value
2022-08-10T00:02:12.293Z,95.76
2022-08-10T00:05:22.338Z,96.33
2022-08-10T00:08:31.064Z,96.22
2022-08-10T00:11:40.836Z,96.81
2022-08-10T00:14:49.389Z,96.99
2022-08-10T00:17:59.728Z,97.10
2022-08-10T00:21:10.316Z,96.59
2022-08-10T00:24:18.845Z,97.80
2022-08-10T00:27:59.030Z,98.13
2022-08-10T00:30:59.379Z,98.30
2022-08-10T00:34:07.570Z,98.25
2022-08-10T00:37:18.339Z,98.43
2022-08-10T00:40:37.123Z,97.02
2022-08-10T00:43:48.162Z,97.30
2022-08-10T00:46:56.625Z,98.62
2022-08-10T00:50:06.836Z,99.97
2022-08-10T00:53:16.050Z,100.00
2022-08-10T00:57:12.242Z,100.00
2022-08-10T00:59:59.613Z,100.00
2022-08-10T01:03:08.691Z,100.00
2022-08-10T01:06:39.725Z,100.00
2022-08-10T01:10:04.316Z,100.00
2022-08-10T01:13:27.727Z,100.00
2022-08-10T01:16:52.549Z,100.00
2022-08-10T01:20:10.659Z,100.00
2022-08-10T01:24:29.873Z,100.00
2022-08-10T01:27:56.844Z,100.00
2022-08-10T01:31:11.953Z,100.00
2022-08-10T01:34:26.578Z,100.00
2022-08-10T01:37:40.257Z,100.00
2022-08-10T01:40:56.166Z,100.00
2022-08-10T01:44:16.067Z,100.00
2022-08-10T01:47:54.687Z,100.00
2022-08-10T01:51:20.071Z,100.00
2022-08-10T01:54:31.188Z,100.00
2022-08-10T01:57:43.206Z,100.00
2022-08-10T02:00:55.880Z,100.00
2022-08-10T02:04:12.137Z,100.00
2022-08-10T02:07:26.047Z,100.00
2022-08-10T02:10:41.086Z,100.00
2022-08-10T02:13:51.952Z,100.00
2022-08-10T02:17:04.315Z,100.00
2022-08-10T02:20:19.661Z,100.00
2022-08-10T02:23:32.626Z,100.00
2022-08-10T02:26:42.948Z,100.00
2022-08-10T02:29:57.091Z,100.00
2022-08-10T02:33:06.941Z,100.00
2022-08-10T02:36:19.825Z,100.00
2022-08-10T02:39:29.366Z,100.00
2022-08-10T02:45:23.959Z,100.00
2022-08-10T02:46:29.745Z,100.00
2022-08-10T02:49:43.653Z,100.00
2022-08-10T02:53:03.443Z,100.00
2022-08-10T02:56:19.909Z,100.00
2022-08-10T02:59:38.494Z,100.00
2022-08-10T03:02:54.608Z,100.00
2022-08-10T03:06:11.750Z,100.00
2022-08-10T03:09:24.678Z,100.00
2022-08-10T03:12:38.788Z,100.00
2022-08-10T03:15:50.201Z,100.00
2022-08-10T03:19:03.485Z,100.00
2022-08-10T03:22:13.504Z,100.00
2022-08-10T03:25:27.413Z,100.00
2022-08-10T03:28:37.084Z,100.00
2022-08-10T03:31:46.781Z,100.00
2022-08-10T03:34:56.233Z,100.00
2022-08-10T03:38:05.186Z,100.00
2022-08-10T03:41:17.432Z,100.00
2022-08-10T03:44:33.522Z,100.00
2022-08-10T03:47:45.678Z,100.00
2022-08-10T03:50:55.763Z,100.00
2022-08-10T03:54:07.527Z,100.00
2022-08-10T03:57:17.632Z,100.00
2022-08-10T04:00:28.795Z,100.00
2022-08-10T04:03:37.143Z,100.00
2022-08-10T04:06:45.706Z,100.00
2022-08-10T04:09:56.454Z,100.00
2022-08-10T04:13:08.822Z,100.00
2022-08-10T04:16:17.304Z,100.00
2022-08-10T04:19:29.340Z,100.00
2022-08-10T04:22:39.234Z,100.00
2022-08-10T04:25:47.794Z,100.00
2022-08-10T04:28:57.457Z,100.00
2022-08-10T04:32:10.520Z,100.00
2022-08-10T04:35:21.786Z,100.00
2022-08-10T04:38:34.674Z,100.00
2022-08-10T04:41:46.314Z,100.00
2022-08-10T04:44:56.272Z,100.00
2022-08-10T04:48:06.622Z,100.00
2022-08-10T04:51:42.029Z,100.00
2022-08-10T04:54:50.554Z,100.00
2022-08-10T04:57:59.188Z,99.53
2022-08-10T05:01:07.691Z,99.10
2022-08-10T05:04:35.508Z,98.66
2022-08-10T05:07:53.881Z,99.04
2022-08-10T05:11:05.419Z,98.74
2022-08-10T05:14:13.987Z,97.69
2022-08-10T05:17:22.270Z,98.30
2022-08-10T05:20:32.529Z,98.78
2022-08-10T05:23:41.034Z,97.47
2022-08-10T05:26:55.213Z,96.85
2022-08-10T05:30:20.239Z,95.98
2022-08-10T05:33:28.559Z,94.96
2022-08-10T05:36:38.658Z,94.88
2022-08-10T05:39:50.402Z,94.54
2022-08-10T05:42:58.877Z,93.59
2022-08-10T05:46:16.854Z,93.45
2022-08-10T05:49:29.089Z,92.94
2022-08-10T05:52:38.860Z,90.79
2022-08-10T05:55:47.241Z,90.78
2022-08-10T05:58:56.032Z,91.15
2022-08-10T06:02:31.076Z,90.09
2022-08-10T06:05:38.559Z,87.22
2022-08-10T06:08:51.476Z,83.74
2022-08-10T06:12:27.102Z,80.28
2022-08-10T06:15:52.039Z,78.55
2022-08-10T06:18:59.935Z,74.31
2022-08-10T06:22:09.046Z,70.47
2022-08-10T06:26:08.342Z,70.01
2022-08-10T06:29:02.854Z,65.25
2022-08-10T06:32:14.783Z,63.51
2022-08-10T06:35:27.050Z,66.46
2022-08-10T06:38:37.247Z,65.28
2022-08-10T06:41:57.779Z,62.60
2022-08-10T06:45:26.742Z,60.05
2022-08-10T06:48:42.906Z,57.93
2022-08-10T06:51:57.677Z,57.68
2022-08-10T06:55:10.845Z,57.24
2022-08-10T06:58:26.828Z,55.80
2022-08-10T07:01:39.672Z,54.01
2022-08-10T07:04:54.506Z,57.43
2022-08-10T07:08:05.214Z,56.49
2022-08-10T07:11:16.236Z,56.91
2022-08-10T07:14:28.730Z,57.38
2022-08-10T07:17:39.800Z,56.00
2022-08-10T07:20:49.287Z,57.53
2022-08-10T07:24:00.863Z,57.54
2022-08-10T07:27:11.670Z,58.01
2022-08-10T07:30:21.929Z,56.29
2022-08-10T07:33:30.961Z,55.97
2022-08-10T07:36:43.910Z,52.59
2022-08-10T07:40:03.189Z,53.87
2022-08-10T07:43:15.382Z,55.14
2022-08-10T07:46:29.412Z,55.85
2022-08-10T07:49:43.310Z,57.30
2022-08-10T07:52:55.011Z,56.54
2022-08-10T07:56:20.857Z,55.09
2022-08-10T07:59:42.902Z,52.96
2022-08-10T08:02:56.577Z,52.44
2022-08-10T08:06:11.576Z,53.42
2022-08-10T08:09:22.405Z,52.74
2022-08-10T08:12:36.740Z,54.11
2022-08-10T08:16:19.903Z,52.72
2022-08-10T08:19:33.648Z,53.00
2022-08-10T08:24:07.236Z,53.15
2022-08-10T08:26:23.518Z,52.61
2022-08-10T08:29:36.877Z,52.88
2022-08-10T08:32:46.877Z,52.17
2022-08-10T08:35:58.147Z,51.48
2022-08-10T08:39:07.032Z,51.31
2022-08-10T08:42:36.653Z,51.25
2022-08-10T08:46:40.208Z,51.92
2022-08-10T08:50:16.264Z,51.18
2022-08-10T08:54:01.777Z,50.67
2022-08-10T08:57:49.443Z,48.88
2022-08-10T09:01:17.904Z,49.38
2022-08-10T09:04:48.382Z,48.08
2022-08-10T09:08:17.408Z,47.84
2022-08-10T09:11:46.592Z,49.35
2022-08-10T09:15:10.629Z,48.83
2022-08-10T09:18:50.677Z,46.77
2022-08-10T09:22:17.710Z,45.66
2022-08-10T09:25:35.809Z,46.60
2022-08-10T09:28:45.820Z,46.23
2022-08-10T09:36:14.701Z,46.75
2022-08-10T09:36:21.604Z,45.72
2022-08-10T09:40:56.954Z,45.12
2022-08-10T09:43:26.674Z,46.33
2022-08-10T09:47:14.318Z,47.84
2022-08-10T09:51:22.377Z,45.90
2022-08-10T09:54:22.408Z,46.16
2022-08-10T09:57:44.891Z,47.02
2022-08-10T10:01:07.268Z,47.66
2022-08-10T10:04:48.488Z,45.87
2022-08-10T10:08:10.507Z,45.96
2022-08-10T10:11:27.618Z,45.61
2022-08-10T10:15:10.157Z,45.59
2022-08-10T10:18:46.091Z,42.22
2022-08-10T10:22:14.968Z,43.58
2022-08-10T10:25:51.737Z,44.53
2022-08-10T10:29:37.525Z,43.64
2022-08-10T10:33:03.925Z,43.27
2022-08-10T10:36:15.641Z,45.88
2022-08-10T10:39:28.168Z,45.40
2022-08-10T10:42:50.422Z,45.03
2022-08-10T10:46:12.981Z,46.41
2022-08-10T10:49:39.958Z,47.82
2022-08-10T10:53:04.015Z,48.13
2022-08-10T10:56:27.454Z,47.62
2022-08-10T10:59:55.333Z,47.44
2022-08-10T11:03:28.041Z,46.13
2022-08-10T11:06:53.637Z,46.49
2022-08-10T11:10:31.954Z,47.14
2022-08-10T11:14:24.550Z,47.51
2022-08-10T11:17:27.075Z,47.60
2022-08-10T11:20:48.072Z,47.35
2022-08-10T11:24:48.930Z,46.94
2022-08-10T11:27:55.594Z,47.72
2022-08-10T11:31:17.245Z,46.71
2022-08-10T11:34:48.909Z,47.45
2022-08-10T11:38:34.660Z,46.46
2022-08-10T11:42:11.655Z,47.34
2022-08-10T11:45:31.360Z,47.02
2022-08-10T11:48:54.904Z,46.32
2022-08-10T11:52:14.047Z,46.28
2022-08-10T11:55:26.009Z,46.85
2022-08-10T11:58:58.925Z,47.23
2022-08-10T12:02:10.370Z,47.41
2022-08-10T12:05:53.075Z,46.89
2022-08-10T12:10:09.589Z,46.66
2022-08-10T12:12:31.733Z,47.13
2022-08-10T12:15:55.833Z,47.17
2022-08-10T12:19:15.049Z,48.80
2022-08-10T12:22:32.077Z,48.05
2022-08-10T12:25:58.662Z,46.69
2022-08-10T12:29:16.030Z,46.79
2022-08-10T12:32:36.872Z,46.07
2022-08-10T12:36:17.286Z,46.90
2022-08-10T12:39:32.443Z,45.85
2022-08-10T12:43:03.897Z,45.53
2022-08-10T12:46:36.317Z,45.72
2022-08-10T12:50:21.639Z,44.55
2022-08-10T12:53:51.591Z,43.83
2022-08-10T12:57:08.941Z,43.65
2022-08-10T13:00:19.378Z,44.34
2022-08-10T13:04:20.532Z,44.60
2022-08-10T13:07:03.308Z,45.13
2022-08-10T13:10:15.359Z,44.79
2022-08-10T13:13:35.994Z,44.74
2022-08-10T13:16:48.649Z,45.46
2022-08-10T13:20:12.970Z,44.48
2022-08-10T13:23:26.724Z,44.40
2022-08-10T13:27:22.714Z,45.03
2022-08-10T13:30:13.453Z,45.17
2022-08-10T13:34:03.568Z,44.20
2022-08-10T13:37:02.250Z,44.90
2022-08-10T13:40:16.101Z,44.69
2022-08-10T13:43:27.270Z,43.71
2022-08-10T13:46:40.383Z,43.67
2022-08-10T13:49:53.399Z,43.14
2022-08-10T13:53:13.994Z,43.16
2022-08-10T13:56:25.830Z,43.76
2022-08-10T14:00:36.106Z,42.83
2022-08-10T14:03:11.967Z,42.83
2022-08-10T14:06:29.494Z,42.13
2022-08-10T14:09:39.184Z,42.99
2022-08-10T14:12:51.379Z,42.26
2022-08-10T14:16:06.303Z,41.83
2022-08-10T14:19:20.887Z,41.97
2022-08-10T14:22:33.834Z,42.56
2022-08-10T14:25:53.479Z,41.94
2022-08-10T14:29:07.718Z,42.32
2022-08-10T14:32:21.771Z,42.11
2022-08-10T14:36:19.627Z,40.63
2022-08-10T14:39:08.228Z,41.15
2022-08-10T14:42:27.530Z,42.09
2022-08-10T14:45:40.924Z,42.23
2022-08-10T14:48:52.424Z,41.93
2022-08-10T14:52:06.031Z,41.28
2022-08-10T14:55:19.519Z,40.99
2022-08-10T14:58:32.953Z,42.33
2022-08-10T15:02:38.207Z,41.80
2022-08-10T15:05:18.843Z,41.91
2022-08-10T15:08:36.654Z,41.22
2022-08-10T15:12:13.081Z,41.03
2022-08-10T15:15:27.923Z,41.96
2022-08-10T15:18:43.251Z,42.70
2022-08-10T15:22:35.768Z,41.16
2022-08-10T15:25:57.670Z,41.25
2022-08-10T15:29:23.048Z,40.67
2022-08-10T15:32:57.611Z,41.16
2022-08-10T15:36:26.344Z,40.87
2022-08-10T15:40:24.052Z,41.17
2022-08-10T15:43:27.006Z,41.32
2022-08-10T15:46:45.586Z,40.58
2022-08-10T15:50:04.143Z,40.92
2022-08-10T15:53:29.110Z,41.00
2022-08-10T15:56:46.128Z,41.10
2022-08-10T16:00:05.153Z,41.04
2022-08-10T16:03:24.910Z,40.79
2022-08-10T16:06:40.356Z,41.10
2022-08-10T16:10:22.543Z,41.31
2022-08-10T16:14:00.109Z,41.94
2022-08-10T16:17:03.186Z,41.28
2022-08-10T16:20:12.655Z,41.53
2022-08-10T16:23:25.751Z,42.57
2022-08-10T16:26:39.911Z,41.65
2022-08-10T16:29:54.449Z,41.15
2022-08-10T16:33:08.853Z,41.61
2022-08-10T16:36:20.752Z,42.31
2022-08-10T16:39:59.253Z,42.15
2022-08-10T16:43:10.666Z,42.82
2022-08-10T16:46:22.383Z,42.75
2022-08-10T16:49:38.026Z,42.81
2022-08-10T16:52:50.578Z,42.46
2022-08-10T16:56:04.221Z,43.20
2022-08-10T16:59:17.748Z,40.98
2022-08-10T17:02:32.680Z,36.62
2022-08-10T17:06:10.321Z,35.50
2022-08-10T17:09:19.368Z,34.86
2022-08-10T17:12:32.580Z,32.57
2022-08-10T17:15:51.269Z,33.05
2022-08-10T17:18:59.982Z,36.07
2022-08-10T17:22:16.092Z,37.80
2022-08-10T17:25:46.186Z,39.11
2022-08-10T17:29:07.290Z,39.46
2022-08-10T17:32:25.124Z,40.96
2022-08-10T17:35:38.037Z,40.86
2022-08-10T17:38:52.876Z,41.18
2022-08-10T17:42:03.943Z,41.41
2022-08-10T17:45:47.841Z,42.17
2022-08-10T17:48:52.993Z,43.09
2022-08-10T17:52:05.814Z,42.89
2022-08-10T17:55:17.087Z,43.10
2022-08-10T17:58:28.338Z,44.68
2022-08-10T18:01:58.166Z,43.84
2022-08-10T18:05:11.110Z,44.19
2022-08-10T18:08:22.730Z,44.20
2022-08-10T18:11:42.331Z,44.55
2022-08-10T18:14:55.696Z,45.73
2022-08-10T18:18:06.368Z,45.78
2022-08-10T18:21:24.879Z,45.26
2022-08-10T18:24:40.052Z,45.90
2022-08-10T18:28:04.552Z,46.06
2022-08-10T18:31:21.251Z,46.66
2022-08-10T18:34:37.186Z,47.14
2022-08-10T18:37:51.353Z,47.10
2022-08-10T18:41:05.896Z,47.44
2022-08-10T18:44:20.448Z,47.73
2022-08-10T18:47:37.560Z,47.86
2022-08-10T18:50:53.282Z,48.59
2022-08-10T18:54:39.845Z,49.22
2022-08-10T18:58:28.939Z,49.47
2022-08-10T19:02:14.520Z,49.95
2022-08-10T19:05:49.075Z,50.28
2022-08-10T19:09:47.142Z,50.84
2022-08-10T19:13:00.298Z,51.22
2022-08-10T19:16:19.276Z,51.95
2022-08-10T19:19:41.998Z,52.53
2022-08-10T19:23:05.504Z,52.32
2022-08-10T19:26:43.817Z,53.66
2022-08-10T19:30:13.073Z,53.20
2022-08-10T19:33:37.073Z,54.38
2022-08-10T19:37:03.479Z,54.20
2022-08-10T19:40:44.604Z,54.68
2022-08-10T19:44:04.309Z,54.61
2022-08-10T19:47:26.081Z,55.11
2022-08-10T19:50:45.304Z,54.89
2022-08-10T19:54:10.162Z,55.25
2022-08-10T19:57:32.101Z,56.15
2022-08-10T20:00:54.939Z,56.51
2022-08-10T20:04:13.075Z,56.21
2022-08-10T20:07:30.691Z,57.31
2022-08-10T20:10:50.674Z,58.15
2022-08-10T20:14:21.197Z,58.80
2022-08-10T20:17:51.212Z,58.82
2022-08-10T20:21:13.621Z,58.82
2022-08-10T20:24:30.118Z,59.82
2022-08-10T20:27:59.212Z,60.05
2022-08-10T20:31:17.694Z,60.63
2022-08-10T20:34:34.366Z,61.08
2022-08-10T20:38:04.543Z,62.41
2022-08-10T20:41:29.804Z,62.80
2022-08-10T20:44:53.675Z,64.23
2022-08-10T20:48:17.895Z,65.19
2022-08-10T20:51:58.746Z,66.55
2022-08-10T20:55:12.431Z,67.87
2022-08-10T20:58:44.008Z,68.07
2022-08-10T21:02:12.826Z,68.87
2022-08-10T21:05:32.996Z,68.68
2022-08-10T21:08:54.190Z,69.25
2022-08-10T21:12:51.710Z,69.81
2022-08-10T21:16:20.270Z,70.89
2022-08-10T21:19:56.908Z,72.27
2022-08-10T21:23:08.621Z,72.64
2022-08-10T21:26:29.799Z,72.50
2022-08-10T21:29:55.995Z,73.62
2022-08-10T21:33:11.838Z,73.35
2022-08-10T21:36:30.416Z,74.18
2022-08-10T21:40:04.786Z,73.87
2022-08-10T21:43:50.443Z,73.95
2022-08-10T21:48:15.667Z,74.62
2022-08-10T21:52:01.162Z,73.37
2022-08-10T21:55:56.993Z,74.36
2022-08-10T21:59:34.989Z,74.43
2022-08-10T22:03:03.738Z,74.72
2022-08-10T22:06:34.464Z,76.25
2022-08-10T22:10:07.714Z,75.62
2022-08-10T22:13:37.944Z,77.08
2022-08-10T22:21:01.878Z,76.98
2022-08-10T22:24:48.326Z,76.99
2022-08-10T22:31:25.965Z,77.15
2022-08-10T22:31:26.217Z,78.00
2022-08-10T22:32:19.799Z,79.29
2022-08-10T22:36:18.789Z,81.04
2022-08-10T22:40:15.050Z,80.59
2022-08-10T22:43:51.701Z,81.25
2022-08-10T22:47:20.456Z,81.69
2022-08-10T22:50:36.597Z,82.64
2022-08-10T22:54:11.251Z,82.43
2022-08-10T22:58:03.793Z,82.25
2022-08-10T23:01:39.070Z,82.95
2022-08-10T23:04:56.640Z,83.08
2022-08-10T23:08:29.397Z,83.37
2022-08-10T23:11:43.236Z,83.94
2022-08-10T23:15:12.922Z,84.63
2022-08-10T23:18:52.087Z,84.04
2022-08-10T23:22:08.734Z,84.51
2022-08-10T23:25:28.304Z,85.05
2022-08-10T23:28:58.355Z,84.93
2022-08-10T23:32:10.751Z,84.88
2022-08-10T23:36:32.114Z,86.30
2022-08-10T23:39:26.488Z,85.43
2022-08-10T23:42:28.472Z,86.11
2022-08-10T23:45:53.675Z,87.23
2022-08-10T23:49:06.260Z,87.00
2022-08-10T23:52:22.487Z,87.05
2022-08-10T23:55:49.559Z,86.98
2022-08-10T23:59:00.219Z,88.00
